sensor_id;sensor_type;location;lat;lon;timestamp;P1;durP1;ratioP1;P2;durP2;ratioP2
9541;SDS011;4809;48.224;8.572;2022-09-13T00:00:35;2.95;;;2.20;;
9541;SDS011;4809;48.224;8.572;2022-09-13T00:03:01;2.40;;;2.20;;
9541;SDS011;4809;48.224;8.572;2022-09-13T00:05:27;2.20;;;2.00;;
9541;SDS011;4809;48.224;8.572;2022-09-13T00:07:54;2.53;;;2.05;;
9541;SDS011;4809;48.224;8.572;2022-09-13T00:10:20;2.38;;;2.17;;
9541;SDS011;4809;48.224;8.572;2022-09-13T00:12:46;3.05;;;2.08;;
9541;SDS011;4809;48.224;8.572;2022-09-13T00:15:12;2.33;;;2.13;;
9541;SDS011;4809;48.224;8.572;2022-09-13T00:17:38;2.28;;;2.08;;
9541;SDS011;4809;48.224;8.572;2022-09-13T00:20:04;3.33;;;2.13;;
9541;SDS011;4809;48.224;8.572;2022-09-13T00:22:30;2.42;;;2.22;;
9541;SDS011;4809;48.224;8.572;2022-09-13T00:24:56;2.40;;;2.20;;
9541;SDS011;4809;48.224;8.572;2022-09-13T00:27:22;2.45;;;2.28;;
9541;SDS011;4809;48.224;8.572;2022-09-13T00:29:47;5.75;;;2.42;;
9541;SDS011;4809;48.224;8.572;2022-09-13T00:32:13;2.40;;;2.20;;
9541;SDS011;4809;48.224;8.572;2022-09-13T00:34:39;2.63;;;2.42;;
9541;SDS011;4809;48.224;8.572;2022-09-13T00:37:04;3.63;;;2.33;;
9541;SDS011;4809;48.224;8.572;2022-09-13T00:39:30;2.95;;;2.25;;
9541;SDS011;4809;48.224;8.572;2022-09-13T00:41:56;2.90;;;2.20;;
9541;SDS011;4809;48.224;8.572;2022-09-13T00:47:15;2.47;;;2.28;;
9541;SDS011;4809;48.224;8.572;2022-09-13T00:49:44;2.80;;;2.20;;
9541;SDS011;4809;48.224;8.572;2022-09-13T00:52:15;2.58;;;2.15;;
9541;SDS011;4809;48.224;8.572;2022-09-13T00:54:45;2.65;;;2.10;;
9541;SDS011;4809;48.224;8.572;2022-09-13T00:57:15;2.72;;;2.35;;
9541;SDS011;4809;48.224;8.572;2022-09-13T00:59:49;2.97;;;2.20;;
9541;SDS011;4809;48.224;8.572;2022-09-13T01:02:25;3.03;;;2.15;;
9541;SDS011;4809;48.224;8.572;2022-09-13T01:04:52;2.67;;;2.42;;
9541;SDS011;4809;48.224;8.572;2022-09-13T01:07:18;3.50;;;2.20;;
9541;SDS011;4809;48.224;8.572;2022-09-13T01:09:45;2.42;;;2.22;;
9541;SDS011;4809;48.224;8.572;2022-09-13T01:14:58;2.40;;;2.20;;
9541;SDS011;4809;48.224;8.572;2022-09-13T01:17:26;2.90;;;2.35;;
9541;SDS011;4809;48.224;8.572;2022-09-13T01:19:54;2.85;;;2.55;;
9541;SDS011;4809;48.224;8.572;2022-09-13T01:23:07;2.50;;;2.30;;
9541;SDS011;4809;48.224;8.572;2022-09-13T01:31:06;2.72;;;2.53;;
9541;SDS011;4809;48.224;8.572;2022-09-13T01:39:32;3.70;;;2.60;;
9541;SDS011;4809;48.224;8.572;2022-09-13T01:44:38;3.10;;;2.80;;
9541;SDS011;4809;48.224;8.572;2022-09-13T01:50:40;4.20;;;2.83;;
9541;SDS011;4809;48.224;8.572;2022-09-13T01:55:39;2.80;;;2.60;;
9541;SDS011;4809;48.224;8.572;2022-09-13T01:58:18;2.80;;;2.60;;
9541;SDS011;4809;48.224;8.572;2022-09-13T02:03:39;3.30;;;2.42;;
9541;SDS011;4809;48.224;8.572;2022-09-13T02:06:33;2.80;;;2.60;;
9541;SDS011;4809;48.224;8.572;2022-09-13T02:09:13;3.30;;;3.00;;
9541;SDS011;4809;48.224;8.572;2022-09-13T02:11:47;4.28;;;2.92;;
9541;SDS011;4809;48.224;8.572;2022-09-13T02:14:21;4.20;;;3.08;;
9541;SDS011;4809;48.224;8.572;2022-09-13T02:16:57;3.63;;;2.97;;
9541;SDS011;4809;48.224;8.572;2022-09-13T02:19:46;4.75;;;3.05;;
9541;SDS011;4809;48.224;8.572;2022-09-13T02:22:26;3.20;;;2.90;;
9541;SDS011;4809;48.224;8.572;2022-09-13T02:24:57;3.63;;;2.60;;
9541;SDS011;4809;48.224;8.572;2022-09-13T02:27:36;4.22;;;2.88;;
9541;SDS011;4809;48.224;8.572;2022-09-13T02:30:08;3.80;;;2.90;;
9541;SDS011;4809;48.224;8.572;2022-09-13T02:32:37;4.00;;;3.08;;
9541;SDS011;4809;48.224;8.572;2022-09-13T02:35:15;3.33;;;2.78;;
9541;SDS011;4809;48.224;8.572;2022-09-13T02:37:49;3.95;;;3.10;;
9541;SDS011;4809;48.224;8.572;2022-09-13T02:40:22;3.10;;;2.75;;
9541;SDS011;4809;48.224;8.572;2022-09-13T02:43:14;3.75;;;2.70;;
9541;SDS011;4809;48.224;8.572;2022-09-13T02:45:46;2.85;;;2.65;;
9541;SDS011;4809;48.224;8.572;2022-09-13T02:48:24;2.67;;;2.47;;
9541;SDS011;4809;48.224;8.572;2022-09-13T02:51:07;3.42;;;2.42;;
9541;SDS011;4809;48.224;8.572;2022-09-13T02:53:44;2.75;;;2.35;;
9541;SDS011;4809;48.224;8.572;2022-09-13T03:01:39;2.83;;;2.58;;
9541;SDS011;4809;48.224;8.572;2022-09-13T03:04:09;3.88;;;2.40;;
9541;SDS011;4809;48.224;8.572;2022-09-13T03:06:36;3.50;;;2.45;;
9541;SDS011;4809;48.224;8.572;2022-09-13T03:09:04;2.90;;;2.50;;
9541;SDS011;4809;48.224;8.572;2022-09-13T03:12:14;2.60;;;2.42;;
9541;SDS011;4809;48.224;8.572;2022-09-13T03:14:31;2.42;;;2.28;;
9541;SDS011;4809;48.224;8.572;2022-09-13T03:17:13;3.17;;;2.38;;
9541;SDS011;4809;48.224;8.572;2022-09-13T03:20:11;2.70;;;2.50;;
9541;SDS011;4809;48.224;8.572;2022-09-13T03:23:11;3.13;;;2.55;;
9541;SDS011;4809;48.224;8.572;2022-09-13T03:25:51;3.83;;;2.70;;
9541;SDS011;4809;48.224;8.572;2022-09-13T03:31:10;3.05;;;2.60;;
9541;SDS011;4809;48.224;8.572;2022-09-13T03:33:45;2.80;;;2.60;;
9541;SDS011;4809;48.224;8.572;2022-09-13T03:36:20;3.72;;;2.60;;
9541;SDS011;4809;48.224;8.572;2022-09-13T03:42:33;3.20;;;2.90;;
9541;SDS011;4809;48.224;8.572;2022-09-13T03:45:09;2.80;;;2.60;;
9541;SDS011;4809;48.224;8.572;2022-09-13T03:47:39;4.70;;;3.05;;
9541;SDS011;4809;48.224;8.572;2022-09-13T03:50:09;4.75;;;3.42;;
9541;SDS011;4809;48.224;8.572;2022-09-13T03:52:38;3.20;;;2.90;;
9541;SDS011;4809;48.224;8.572;2022-09-13T03:55:04;3.20;;;2.80;;
9541;SDS011;4809;48.224;8.572;2022-09-13T03:57:30;3.38;;;2.90;;
9541;SDS011;4809;48.224;8.572;2022-09-13T03:59:56;3.33;;;3.00;;
9541;SDS011;4809;48.224;8.572;2022-09-13T04:02:22;3.13;;;2.83;;
9541;SDS011;4809;48.224;8.572;2022-09-13T04:04:49;3.88;;;3.15;;
9541;SDS011;4809;48.224;8.572;2022-09-13T04:07:20;3.42;;;2.95;;
9541;SDS011;4809;48.224;8.572;2022-09-13T04:09:47;4.57;;;2.92;;
9541;SDS011;4809;48.224;8.572;2022-09-13T04:12:13;3.50;;;3.08;;
9541;SDS011;4809;48.224;8.572;2022-09-13T04:14:39;3.72;;;3.13;;
9541;SDS011;4809;48.224;8.572;2022-09-13T04:17:06;3.83;;;3.20;;
9541;SDS011;4809;48.224;8.572;2022-09-13T04:19:32;3.20;;;2.90;;
9541;SDS011;4809;48.224;8.572;2022-09-13T04:21:57;6.22;;;3.10;;
9541;SDS011;4809;48.224;8.572;2022-09-13T04:24:26;4.70;;;3.25;;
9541;SDS011;4809;48.224;8.572;2022-09-13T04:26:53;4.60;;;3.10;;
9541;SDS011;4809;48.224;8.572;2022-09-13T04:29:20;4.00;;;3.47;;
9541;SDS011;4809;48.224;8.572;2022-09-13T04:31:48;3.22;;;2.92;;
9541;SDS011;4809;48.224;8.572;2022-09-13T04:34:14;3.20;;;2.85;;
9541;SDS011;4809;48.224;8.572;2022-09-13T04:36:42;3.28;;;2.80;;
9541;SDS011;4809;48.224;8.572;2022-09-13T04:39:08;3.92;;;3.40;;
9541;SDS011;4809;48.224;8.572;2022-09-13T04:41:34;3.40;;;3.10;;
9541;SDS011;4809;48.224;8.572;2022-09-13T04:44:00;4.47;;;3.00;;
9541;SDS011;4809;48.224;8.572;2022-09-13T04:46:27;3.58;;;2.80;;
9541;SDS011;4809;48.224;8.572;2022-09-13T04:48:53;6.07;;;3.00;;
9541;SDS011;4809;48.224;8.572;2022-09-13T04:51:19;3.10;;;2.90;;
9541;SDS011;4809;48.224;8.572;2022-09-13T04:53:52;3.20;;;2.90;;
9541;SDS011;4809;48.224;8.572;2022-09-13T04:56:19;4.18;;;2.80;;
9541;SDS011;4809;48.224;8.572;2022-09-13T04:58:47;3.30;;;3.00;;
9541;SDS011;4809;48.224;8.572;2022-09-13T05:01:16;3.92;;;2.58;;
9541;SDS011;4809;48.224;8.572;2022-09-13T05:03:42;2.90;;;2.70;;
9541;SDS011;4809;48.224;8.572;2022-09-13T05:06:10;2.78;;;2.50;;
9541;SDS011;4809;48.224;8.572;2022-09-13T05:08:37;3.08;;;2.70;;
9541;SDS011;4809;48.224;8.572;2022-09-13T05:11:04;3.95;;;2.70;;
9541;SDS011;4809;48.224;8.572;2022-09-13T05:13:30;3.20;;;2.90;;
9541;SDS011;4809;48.224;8.572;2022-09-13T05:16:00;3.78;;;2.70;;
9541;SDS011;4809;48.224;8.572;2022-09-13T05:18:29;3.00;;;2.70;;
9541;SDS011;4809;48.224;8.572;2022-09-13T05:20:56;3.75;;;2.90;;
9541;SDS011;4809;48.224;8.572;2022-09-13T05:23:23;3.42;;;3.05;;
9541;SDS011;4809;48.224;8.572;2022-09-13T05:25:57;3.22;;;2.95;;
9541;SDS011;4809;48.224;8.572;2022-09-13T05:28:31;2.70;;;2.50;;
9541;SDS011;4809;48.224;8.572;2022-09-13T05:31:17;4.10;;;3.22;;
9541;SDS011;4809;48.224;8.572;2022-09-13T05:33:46;3.03;;;2.67;;
9541;SDS011;4809;48.224;8.572;2022-09-13T05:36:16;2.92;;;2.72;;
9541;SDS011;4809;48.224;8.572;2022-09-13T05:38:42;2.70;;;2.50;;
9541;SDS011;4809;48.224;8.572;2022-09-13T05:41:08;2.90;;;2.70;;
9541;SDS011;4809;48.224;8.572;2022-09-13T05:43:34;3.40;;;2.78;;
9541;SDS011;4809;48.224;8.572;2022-09-13T05:48:26;2.80;;;2.58;;
9541;SDS011;4809;48.224;8.572;2022-09-13T05:50:51;2.80;;;2.60;;
9541;SDS011;4809;48.224;8.572;2022-09-13T05:53:17;4.63;;;2.78;;
9541;SDS011;4809;48.224;8.572;2022-09-13T05:55:42;2.80;;;2.60;;
9541;SDS011;4809;48.224;8.572;2022-09-13T05:58:08;3.20;;;2.70;;
9541;SDS011;4809;48.224;8.572;2022-09-13T06:00:34;2.60;;;2.40;;
9541;SDS011;4809;48.224;8.572;2022-09-13T06:02:59;4.35;;;2.70;;
9541;SDS011;4809;48.224;8.572;2022-09-13T06:05:25;3.20;;;2.80;;
9541;SDS011;4809;48.224;8.572;2022-09-13T06:07:51;4.07;;;2.90;;
9541;SDS011;4809;48.224;8.572;2022-09-13T06:10:16;3.17;;;2.60;;
9541;SDS011;4809;48.224;8.572;2022-09-13T06:12:42;3.42;;;2.78;;
9541;SDS011;4809;48.224;8.572;2022-09-13T06:15:08;2.83;;;2.63;;
9541;SDS011;4809;48.224;8.572;2022-09-13T06:17:35;2.85;;;2.65;;
9541;SDS011;4809;48.224;8.572;2022-09-13T06:20:01;2.72;;;2.50;;
9541;SDS011;4809;48.224;8.572;2022-09-13T06:22:27;2.70;;;2.50;;
9541;SDS011;4809;48.224;8.572;2022-09-13T06:24:57;2.97;;;2.55;;
9541;SDS011;4809;48.224;8.572;2022-09-13T06:27:23;3.00;;;2.70;;
9541;SDS011;4809;48.224;8.572;2022-09-13T06:29:49;2.90;;;2.58;;
9541;SDS011;4809;48.224;8.572;2022-09-13T06:32:14;3.33;;;2.60;;
9541;SDS011;4809;48.224;8.572;2022-09-13T06:34:40;3.75;;;2.83;;
9541;SDS011;4809;48.224;8.572;2022-09-13T06:37:06;3.70;;;3.10;;
9541;SDS011;4809;48.224;8.572;2022-09-13T06:39:32;4.82;;;3.35;;
9541;SDS011;4809;48.224;8.572;2022-09-13T06:41:58;3.08;;;2.75;;
9541;SDS011;4809;48.224;8.572;2022-09-13T06:44:24;4.78;;;3.30;;
9541;SDS011;4809;48.224;8.572;2022-09-13T06:46:50;4.20;;;3.00;;
9541;SDS011;4809;48.224;8.572;2022-09-13T06:49:16;5.32;;;2.90;;
9541;SDS011;4809;48.224;8.572;2022-09-13T06:51:41;3.28;;;2.60;;
9541;SDS011;4809;48.224;8.572;2022-09-13T06:54:07;4.30;;;2.78;;
9541;SDS011;4809;48.224;8.572;2022-09-13T06:56:34;3.55;;;2.80;;
9541;SDS011;4809;48.224;8.572;2022-09-13T06:59:03;5.22;;;3.05;;
9541;SDS011;4809;48.224;8.572;2022-09-13T07:06:28;4.47;;;2.58;;
9541;SDS011;4809;48.224;8.572;2022-09-13T07:08:56;3.25;;;2.88;;
9541;SDS011;4809;48.224;8.572;2022-09-13T07:11:24;3.42;;;2.60;;
9541;SDS011;4809;48.224;8.572;2022-09-13T07:13:54;4.32;;;2.88;;
9541;SDS011;4809;48.224;8.572;2022-09-13T07:16:21;4.05;;;2.88;;
9541;SDS011;4809;48.224;8.572;2022-09-13T07:18:52;5.03;;;2.80;;
9541;SDS011;4809;48.224;8.572;2022-09-13T07:21:19;4.65;;;3.03;;
9541;SDS011;4809;48.224;8.572;2022-09-13T07:23:46;3.58;;;2.92;;
9541;SDS011;4809;48.224;8.572;2022-09-13T07:26:12;3.38;;;2.90;;
9541;SDS011;4809;48.224;8.572;2022-09-13T07:28:38;3.08;;;2.78;;
9541;SDS011;4809;48.224;8.572;2022-09-13T07:31:16;3.00;;;2.80;;
9541;SDS011;4809;48.224;8.572;2022-09-13T07:33:47;3.35;;;3.00;;
9541;SDS011;4809;48.224;8.572;2022-09-13T07:36:21;2.80;;;2.60;;
9541;SDS011;4809;48.224;8.572;2022-09-13T07:38:47;4.78;;;2.92;;
9541;SDS011;4809;48.224;8.572;2022-09-13T07:41:16;3.72;;;2.88;;
9541;SDS011;4809;48.224;8.572;2022-09-13T07:43:43;2.78;;;2.58;;
9541;SDS011;4809;48.224;8.572;2022-09-13T07:46:10;3.30;;;2.70;;
9541;SDS011;4809;48.224;8.572;2022-09-13T07:48:40;3.35;;;2.75;;
9541;SDS011;4809;48.224;8.572;2022-09-13T07:51:11;4.13;;;3.08;;
9541;SDS011;4809;48.224;8.572;2022-09-13T07:53:39;2.90;;;2.60;;
9541;SDS011;4809;48.224;8.572;2022-09-13T07:56:07;3.13;;;2.78;;
9541;SDS011;4809;48.224;8.572;2022-09-13T07:58:44;2.60;;;2.40;;
9541;SDS011;4809;48.224;8.572;2022-09-13T08:01:15;3.63;;;2.80;;
9541;SDS011;4809;48.224;8.572;2022-09-13T08:03:43;3.33;;;2.80;;
9541;SDS011;4809;48.224;8.572;2022-09-13T08:06:09;3.85;;;2.95;;
9541;SDS011;4809;48.224;8.572;2022-09-13T08:08:36;5.60;;;2.80;;
9541;SDS011;4809;48.224;8.572;2022-09-13T08:11:03;2.88;;;2.60;;
9541;SDS011;4809;48.224;8.572;2022-09-13T08:13:30;5.18;;;2.50;;
9541;SDS011;4809;48.224;8.572;2022-09-13T08:15:59;3.38;;;2.65;;
9541;SDS011;4809;48.224;8.572;2022-09-13T08:18:30;3.67;;;2.60;;
9541;SDS011;4809;48.224;8.572;2022-09-13T08:20:57;2.90;;;2.70;;
9541;SDS011;4809;48.224;8.572;2022-09-13T08:23:24;3.42;;;2.47;;
9541;SDS011;4809;48.224;8.572;2022-09-13T08:25:49;2.78;;;2.42;;
9541;SDS011;4809;48.224;8.572;2022-09-13T08:28:16;3.83;;;2.42;;
9541;SDS011;4809;48.224;8.572;2022-09-13T08:30:42;3.13;;;2.40;;
9541;SDS011;4809;48.224;8.572;2022-09-13T08:33:12;3.88;;;2.75;;
9541;SDS011;4809;48.224;8.572;2022-09-13T08:35:38;2.63;;;2.42;;
9541;SDS011;4809;48.224;8.572;2022-09-13T08:38:04;2.80;;;2.53;;
9541;SDS011;4809;48.224;8.572;2022-09-13T08:40:32;2.42;;;2.22;;
9541;SDS011;4809;48.224;8.572;2022-09-13T08:45:33;4.32;;;2.75;;
9541;SDS011;4809;48.224;8.572;2022-09-13T08:48:18;5.10;;;2.90;;
9541;SDS011;4809;48.224;8.572;2022-09-13T08:50:48;4.22;;;2.33;;
9541;SDS011;4809;48.224;8.572;2022-09-13T08:53:23;3.42;;;2.60;;
9541;SDS011;4809;48.224;8.572;2022-09-13T09:06:53;3.55;;;2.40;;
9541;SDS011;4809;48.224;8.572;2022-09-13T09:10:14;2.00;;;1.90;;
9541;SDS011;4809;48.224;8.572;2022-09-13T09:12:51;2.85;;;2.08;;
9541;SDS011;4809;48.224;8.572;2022-09-13T09:17:54;2.33;;;2.10;;
9541;SDS011;4809;48.224;8.572;2022-09-13T09:20:27;3.08;;;2.25;;
9541;SDS011;4809;48.224;8.572;2022-09-13T09:23:03;2.40;;;2.10;;
9541;SDS011;4809;48.224;8.572;2022-09-13T09:25:36;2.28;;;2.00;;
9541;SDS011;4809;48.224;8.572;2022-09-13T09:28:08;2.50;;;1.80;;
9541;SDS011;4809;48.224;8.572;2022-09-13T09:30:47;2.45;;;1.73;;
9541;SDS011;4809;48.224;8.572;2022-09-13T09:33:26;2.03;;;1.80;;
9541;SDS011;4809;48.224;8.572;2022-09-13T09:36:20;2.08;;;1.80;;
9541;SDS011;4809;48.224;8.572;2022-09-13T09:38:50;2.70;;;1.58;;
9541;SDS011;4809;48.224;8.572;2022-09-13T09:41:22;1.70;;;1.60;;
9541;SDS011;4809;48.224;8.572;2022-09-13T09:46:36;1.60;;;1.50;;
9541;SDS011;4809;48.224;8.572;2022-09-13T09:49:05;3.03;;;1.80;;
9541;SDS011;4809;48.224;8.572;2022-09-13T09:52:09;3.47;;;1.63;;
9541;SDS011;4809;48.224;8.572;2022-09-13T09:54:39;2.00;;;1.52;;
9541;SDS011;4809;48.224;8.572;2022-09-13T09:57:05;1.77;;;1.65;;
9541;SDS011;4809;48.224;8.572;2022-09-13T09:59:32;4.28;;;1.58;;
9541;SDS011;4809;48.224;8.572;2022-09-13T10:01:59;2.28;;;1.70;;
9541;SDS011;4809;48.224;8.572;2022-09-13T10:04:28;5.65;;;1.70;;
9541;SDS011;4809;48.224;8.572;2022-09-13T10:07:29;1.33;;;1.23;;
9541;SDS011;4809;48.224;8.572;2022-09-13T10:09:53;2.47;;;1.35;;
9541;SDS011;4809;48.224;8.572;2022-09-13T10:12:24;1.20;;;1.20;;
9541;SDS011;4809;48.224;8.572;2022-09-13T10:14:52;1.23;;;1.08;;
9541;SDS011;4809;48.224;8.572;2022-09-13T10:17:39;1.58;;;1.30;;
9541;SDS011;4809;48.224;8.572;2022-09-13T10:22:36;1.50;;;1.40;;
9541;SDS011;4809;48.224;8.572;2022-09-13T10:25:21;1.48;;;1.38;;
9541;SDS011;4809;48.224;8.572;2022-09-13T10:27:48;4.93;;;1.30;;
9541;SDS011;4809;48.224;8.572;2022-09-13T10:30:25;2.45;;;1.35;;
9541;SDS011;4809;48.224;8.572;2022-09-13T10:32:55;2.30;;;1.30;;
9541;SDS011;4809;48.224;8.572;2022-09-13T10:35:21;1.42;;;1.27;;
9541;SDS011;4809;48.224;8.572;2022-09-13T10:37:48;1.50;;;1.17;;
9541;SDS011;4809;48.224;8.572;2022-09-13T10:42:55;2.38;;;1.20;;
9541;SDS011;4809;48.224;8.572;2022-09-13T10:45:23;2.10;;;1.20;;
9541;SDS011;4809;48.224;8.572;2022-09-13T10:47:51;1.35;;;1.25;;
9541;SDS011;4809;48.224;8.572;2022-09-13T10:52:48;1.75;;;1.30;;
9541;SDS011;4809;48.224;8.572;2022-09-13T10:57:44;1.05;;;0.75;;
9541;SDS011;4809;48.224;8.572;2022-09-13T11:00:12;1.20;;;1.08;;
9541;SDS011;4809;48.224;8.572;2022-09-13T11:08:33;1.13;;;1.13;;
9541;SDS011;4809;48.224;8.572;2022-09-13T11:11:28;1.88;;;1.10;;
9541;SDS011;4809;48.224;8.572;2022-09-13T11:14:14;1.20;;;1.10;;
9541;SDS011;4809;48.224;8.572;2022-09-13T11:16:54;1.77;;;0.90;;
9541;SDS011;4809;48.224;8.572;2022-09-13T11:47:09;1.23;;;1.10;;
9541;SDS011;4809;48.224;8.572;2022-09-13T11:50:01;1.48;;;1.10;;
9541;SDS011;4809;48.224;8.572;2022-09-13T11:53:00;1.27;;;1.17;;
9541;SDS011;4809;48.224;8.572;2022-09-13T11:55:34;1.23;;;1.15;;
9541;SDS011;4809;48.224;8.572;2022-09-13T11:58:17;1.42;;;1.20;;
9541;SDS011;4809;48.224;8.572;2022-09-13T12:00:52;1.88;;;1.10;;
9541;SDS011;4809;48.224;8.572;2022-09-13T12:03:27;1.95;;;1.20;;
9541;SDS011;4809;48.224;8.572;2022-09-13T12:06:30;1.35;;;1.27;;
9541;SDS011;4809;48.224;8.572;2022-09-13T12:09:05;1.70;;;1.20;;
9541;SDS011;4809;48.224;8.572;2022-09-13T12:11:41;1.40;;;1.10;;
9541;SDS011;4809;48.224;8.572;2022-09-13T12:14:12;1.17;;;1.05;;
9541;SDS011;4809;48.224;8.572;2022-09-13T12:16:45;1.45;;;1.10;;
9541;SDS011;4809;48.224;8.572;2022-09-13T12:21:42;1.38;;;1.27;;
9541;SDS011;4809;48.224;8.572;2022-09-13T12:24:17;1.30;;;1.20;;
9541;SDS011;4809;48.224;8.572;2022-09-13T12:27:01;1.40;;;1.08;;
9541;SDS011;4809;48.224;8.572;2022-09-13T12:32:08;1.65;;;1.20;;
9541;SDS011;4809;48.224;8.572;2022-09-13T12:34:40;1.25;;;1.25;;
9541;SDS011;4809;48.224;8.572;2022-09-13T13:02:35;1.30;;;1.20;;
9541;SDS011;4809;48.224;8.572;2022-09-13T13:05:04;1.17;;;1.17;;
9541;SDS011;4809;48.224;8.572;2022-09-13T13:07:49;1.77;;;1.20;;
9541;SDS011;4809;48.224;8.572;2022-09-13T13:10:31;1.38;;;1.15;;
9541;SDS011;4809;48.224;8.572;2022-09-13T13:18:51;2.03;;;1.20;;
9541;SDS011;4809;48.224;8.572;2022-09-13T13:26:55;1.35;;;1.23;;
9541;SDS011;4809;48.224;8.572;2022-09-13T13:36:59;1.45;;;1.10;;
9541;SDS011;4809;48.224;8.572;2022-09-13T13:41:54;1.67;;;1.10;;
9541;SDS011;4809;48.224;8.572;2022-09-13T13:46:51;1.40;;;1.30;;
9541;SDS011;4809;48.224;8.572;2022-09-13T14:00:26;3.45;;;1.20;;
9541;SDS011;4809;48.224;8.572;2022-09-13T14:11:09;2.28;;;1.10;;
9541;SDS011;4809;48.224;8.572;2022-09-13T14:19:38;3.10;;;1.50;;
9541;SDS011;4809;48.224;8.572;2022-09-13T14:22:26;1.40;;;1.30;;
9541;SDS011;4809;48.224;8.572;2022-09-13T14:27:24;1.40;;;1.30;;
9541;SDS011;4809;48.224;8.572;2022-09-13T14:30:03;2.70;;;1.50;;
9541;SDS011;4809;48.224;8.572;2022-09-13T14:32:41;4.05;;;1.50;;
9541;SDS011;4809;48.224;8.572;2022-09-13T14:38:24;3.28;;;1.50;;
9541;SDS011;4809;48.224;8.572;2022-09-13T14:40:58;1.85;;;1.33;;
9541;SDS011;4809;48.224;8.572;2022-09-13T14:43:26;2.97;;;1.60;;
9541;SDS011;4809;48.224;8.572;2022-09-13T14:48:48;5.53;;;1.60;;
9541;SDS011;4809;48.224;8.572;2022-09-13T14:51:23;9.52;;;2.03;;
9541;SDS011;4809;48.224;8.572;2022-09-13T14:53:51;2.67;;;1.60;;
9541;SDS011;4809;48.224;8.572;2022-09-13T14:56:39;2.03;;;1.60;;
9541;SDS011;4809;48.224;8.572;2022-09-13T15:02:45;4.22;;;1.70;;
9541;SDS011;4809;48.224;8.572;2022-09-13T15:04:54;1.42;;;1.33;;
9541;SDS011;4809;48.224;8.572;2022-09-13T15:07:34;1.50;;;1.40;;
9541;SDS011;4809;48.224;8.572;2022-09-13T15:12:37;3.33;;;1.58;;
9541;SDS011;4809;48.224;8.572;2022-09-13T15:15:24;3.13;;;1.50;;
9541;SDS011;4809;48.224;8.572;2022-09-13T15:18:02;3.17;;;1.52;;
9541;SDS011;4809;48.224;8.572;2022-09-13T15:20:29;2.20;;;1.30;;
9541;SDS011;4809;48.224;8.572;2022-09-13T15:23:21;2.10;;;1.23;;
9541;SDS011;4809;48.224;8.572;2022-09-13T15:26:04;2.10;;;1.30;;
9541;SDS011;4809;48.224;8.572;2022-09-13T15:28:56;2.47;;;1.30;;
9541;SDS011;4809;48.224;8.572;2022-09-13T15:31:31;5.35;;;3.78;;
9541;SDS011;4809;48.224;8.572;2022-09-13T15:36:45;6.10;;;5.50;;
9541;SDS011;4809;48.224;8.572;2022-09-13T15:39:17;2.80;;;1.80;;
9541;SDS011;4809;48.224;8.572;2022-09-13T15:41:51;1.95;;;1.40;;
9541;SDS011;4809;48.224;8.572;2022-09-13T15:44:22;1.40;;;1.30;;
9541;SDS011;4809;48.224;8.572;2022-09-13T15:46:49;1.55;;;1.45;;
9541;SDS011;4809;48.224;8.572;2022-09-13T15:49:19;1.50;;;1.40;;
9541;SDS011;4809;48.224;8.572;2022-09-13T15:51:52;2.42;;;1.42;;
9541;SDS011;4809;48.224;8.572;2022-09-13T15:54:19;1.38;;;1.25;;
9541;SDS011;4809;48.224;8.572;2022-09-13T15:56:47;4.28;;;1.60;;
9541;SDS011;4809;48.224;8.572;2022-09-13T15:59:16;2.20;;;1.60;;
9541;SDS011;4809;48.224;8.572;2022-09-13T16:01:44;2.28;;;1.60;;
9541;SDS011;4809;48.224;8.572;2022-09-13T16:04:11;1.60;;;1.50;;
9541;SDS011;4809;48.224;8.572;2022-09-13T16:06:37;1.73;;;1.45;;
9541;SDS011;4809;48.224;8.572;2022-09-13T16:11:43;1.75;;;1.60;;
9541;SDS011;4809;48.224;8.572;2022-09-13T16:14:09;3.17;;;1.70;;
9541;SDS011;4809;48.224;8.572;2022-09-13T16:16:35;3.17;;;1.70;;
9541;SDS011;4809;48.224;8.572;2022-09-13T16:19:01;2.85;;;1.80;;
9541;SDS011;4809;48.224;8.572;2022-09-13T16:21:27;1.70;;;1.60;;
9541;SDS011;4809;48.224;8.572;2022-09-13T16:23:53;1.80;;;1.70;;
9541;SDS011;4809;48.224;8.572;2022-09-13T16:26:19;2.55;;;1.80;;
9541;SDS011;4809;48.224;8.572;2022-09-13T16:28:45;2.50;;;1.80;;
9541;SDS011;4809;48.224;8.572;2022-09-13T16:31:10;1.90;;;1.80;;
9541;SDS011;4809;48.224;8.572;2022-09-13T16:33:38;1.90;;;1.80;;
9541;SDS011;4809;48.224;8.572;2022-09-13T16:36:04;2.08;;;1.92;;
9541;SDS011;4809;48.224;8.572;2022-09-13T16:38:30;4.05;;;1.90;;
9541;SDS011;4809;48.224;8.572;2022-09-13T16:40:56;2.20;;;2.00;;
9541;SDS011;4809;48.224;8.572;2022-09-13T16:43:21;2.05;;;1.80;;
9541;SDS011;4809;48.224;8.572;2022-09-13T16:45:47;3.67;;;1.90;;
9541;SDS011;4809;48.224;8.572;2022-09-13T16:48:14;3.72;;;1.80;;
9541;SDS011;4809;48.224;8.572;2022-09-13T16:50:40;2.20;;;1.90;;
9541;SDS011;4809;48.224;8.572;2022-09-13T16:53:06;3.78;;;2.00;;
9541;SDS011;4809;48.224;8.572;2022-09-13T16:55:32;2.45;;;2.00;;
9541;SDS011;4809;48.224;8.572;2022-09-13T16:57:58;2.33;;;1.90;;
9541;SDS011;4809;48.224;8.572;2022-09-13T17:00:24;2.17;;;2.00;;
9541;SDS011;4809;48.224;8.572;2022-09-13T17:02:53;2.22;;;2.00;;
9541;SDS011;4809;48.224;8.572;2022-09-13T17:05:19;2.22;;;2.08;;
9541;SDS011;4809;48.224;8.572;2022-09-13T17:07:46;2.38;;;2.05;;
9541;SDS011;4809;48.224;8.572;2022-09-13T17:10:11;4.07;;;1.98;;
9541;SDS011;4809;48.224;8.572;2022-09-13T17:12:37;2.25;;;2.05;;
9541;SDS011;4809;48.224;8.572;2022-09-13T17:15:03;4.28;;;2.10;;
9541;SDS011;4809;48.224;8.572;2022-09-13T17:17:30;2.38;;;2.13;;
9541;SDS011;4809;48.224;8.572;2022-09-13T17:20:00;3.95;;;2.22;;
9541;SDS011;4809;48.224;8.572;2022-09-13T17:22:29;3.05;;;2.20;;
9541;SDS011;4809;48.224;8.572;2022-09-13T17:24:55;2.60;;;2.03;;
9541;SDS011;4809;48.224;8.572;2022-09-13T17:27:21;3.45;;;2.15;;
9541;SDS011;4809;48.224;8.572;2022-09-13T17:29:47;3.70;;;2.30;;
9541;SDS011;4809;48.224;8.572;2022-09-13T17:32:12;2.95;;;2.15;;
9541;SDS011;4809;48.224;8.572;2022-09-13T17:34:38;2.60;;;2.00;;
9541;SDS011;4809;48.224;8.572;2022-09-13T17:37:03;2.53;;;2.00;;
9541;SDS011;4809;48.224;8.572;2022-09-13T17:39:30;2.20;;;2.10;;
9541;SDS011;4809;48.224;8.572;2022-09-13T17:41:56;2.35;;;2.15;;
9541;SDS011;4809;48.224;8.572;2022-09-13T17:44:22;2.28;;;2.08;;
9541;SDS011;4809;48.224;8.572;2022-09-13T17:46:47;3.33;;;2.28;;
9541;SDS011;4809;48.224;8.572;2022-09-13T17:49:13;2.10;;;1.90;;
9541;SDS011;4809;48.224;8.572;2022-09-13T17:51:39;2.33;;;1.90;;
9541;SDS011;4809;48.224;8.572;2022-09-13T17:54:05;4.07;;;2.20;;
9541;SDS011;4809;48.224;8.572;2022-09-13T17:56:37;3.03;;;2.30;;
9541;SDS011;4809;48.224;8.572;2022-09-13T17:59:10;2.63;;;2.10;;
9541;SDS011;4809;48.224;8.572;2022-09-13T18:01:39;3.83;;;2.10;;
9541;SDS011;4809;48.224;8.572;2022-09-13T18:04:07;3.83;;;2.42;;
9541;SDS011;4809;48.224;8.572;2022-09-13T18:06:34;2.40;;;2.20;;
9541;SDS011;4809;48.224;8.572;2022-09-13T18:09:02;2.97;;;2.20;;
9541;SDS011;4809;48.224;8.572;2022-09-13T18:11:28;2.17;;;1.98;;
9541;SDS011;4809;48.224;8.572;2022-09-13T18:13:54;4.05;;;2.15;;
9541;SDS011;4809;48.224;8.572;2022-09-13T18:16:21;2.40;;;2.00;;
9541;SDS011;4809;48.224;8.572;2022-09-13T18:18:49;2.80;;;2.17;;
9541;SDS011;4809;48.224;8.572;2022-09-13T18:21:16;2.20;;;2.00;;
9541;SDS011;4809;48.224;8.572;2022-09-13T18:23:44;3.70;;;2.13;;
9541;SDS011;4809;48.224;8.572;2022-09-13T18:26:11;2.60;;;2.20;;
9541;SDS011;4809;48.224;8.572;2022-09-13T18:28:38;3.30;;;1.95;;
9541;SDS011;4809;48.224;8.572;2022-09-13T18:31:05;3.17;;;2.10;;
9541;SDS011;4809;48.224;8.572;2022-09-13T18:33:35;2.72;;;2.20;;
9541;SDS011;4809;48.224;8.572;2022-09-13T18:38:32;2.35;;;2.20;;
9541;SDS011;4809;48.224;8.572;2022-09-13T18:41:04;3.53;;;2.20;;
9541;SDS011;4809;48.224;8.572;2022-09-13T18:43:39;3.35;;;2.20;;
9541;SDS011;4809;48.224;8.572;2022-09-13T18:46:09;2.67;;;2.08;;
9541;SDS011;4809;48.224;8.572;2022-09-13T18:48:41;4.55;;;2.33;;
9541;SDS011;4809;48.224;8.572;2022-09-13T18:51:08;2.88;;;2.28;;
9541;SDS011;4809;48.224;8.572;2022-09-13T18:53:36;3.63;;;2.38;;
9541;SDS011;4809;48.224;8.572;2022-09-13T18:56:02;3.78;;;2.20;;
9541;SDS011;4809;48.224;8.572;2022-09-13T18:58:31;2.85;;;2.53;;
9541;SDS011;4809;48.224;8.572;2022-09-13T19:00:58;3.92;;;2.40;;
9541;SDS011;4809;48.224;8.572;2022-09-13T19:03:25;3.45;;;2.30;;
9541;SDS011;4809;48.224;8.572;2022-09-13T19:05:51;4.90;;;2.60;;
9541;SDS011;4809;48.224;8.572;2022-09-13T19:08:16;4.32;;;2.50;;